^^
Datos históricos de la estación: Murcia-Puente Tocinos
Diario Informe para Septiembre 10, 2019 Unidades:  Ingés    Métrico   Ambas
Diario Semanal Mensual Anual
  Máxima: Mínima: Promedio:
Temperatura: 88.3 °F 68 °F 77.5 °F
Punto de rocio: 60.6 °F 54.7 °F 57.2 °F
Humedad: 71% 34.7% 51%
Velocidad viento: 12.5mph 0mph 4.6mph
Racha viento: 21mph - -
Viento- - Sur
Presión: 29.9 in 29.8 in -
Precipitación: 0 in    
 
 
Tabla de datos para Septiembre 10, 2019
Hora Temperatura Punto de rocio Presión Viento Velocidad viento Racha viento Humedad Intensidad lluvia(por hora) Nubes
00:04 72.1 °F 59.4 °F 29.9 in ENE 2.4 mph 5.8 mph 64% 0 in
00:09 72 °F 59.4 °F 29.9 in NE 2.3 mph 6 mph 64.6% 0 in
00:14 71.8 °F 59.4 °F 29.9 in NE 2 mph 5 mph 65% 0 in
00:19 71.8 °F 59.7 °F 29.9 in NE 1.8 mph 3 mph 65.9% 0 in
00:24 71.6 °F 59.5 °F 29.9 in NNE 1.4 mph 2.3 mph 66% 0 in
00:29 71.4 °F 59.9 °F 29.9 in NNE 0.9 mph 2 mph 66.8% 0 in
00:34 71.4 °F 60.3 °F 29.9 in Calm     67.8% 0 in
00:39 71.2 °F 60.1 °F 29.9 in Calm     68% 0 in
00:44 71.2 °F 60.4 °F 29.9 in Calm     68.8% 0 in
00:49 71.1 °F 60.4 °F 29.9 in Calm     69% 0 in
00:54 71.1 °F 60.4 °F 29.9 in Calm   2.9 mph 69% 0 in
00:59 71.1 °F 60.4 °F 29.9 in Calm   3.5 mph 69% 0 in
01:04 71.1 °F 60.3 °F 29.9 in Calm   3 mph 69% 0 in
01:09 70.9 °F 60.3 °F 29.9 in NNE 0.6 mph 5.2 mph 69% 0 in
01:14 70.7 °F 60.4 °F 29.9 in NNE 1.8 mph 5 mph 69.8% 0 in
01:19 70.5 °F 60.3 °F 29.9 in North 2 mph 5 mph 70% 0 in
01:24 70.5 °F 60.3 °F 29.9 in North 2.4 mph 4 mph 70% 0 in
01:29 70.3 °F 60.6 °F 29.9 in North 2.1 mph 3 mph 70.9% 0 in
01:34 70.3 °F 60.4 °F 29.9 in North 1.4 mph 3 mph 70.7% 0 in
01:39 70.3 °F 60.4 °F 29.9 in North 0.9 mph   70.8% 0 in
01:44 70.3 °F 60.3 °F 29.9 in Calm     70.5% 0 in
01:49 70.3 °F 60.4 °F 29.9 in Calm   2.4 mph 71% 0 in
01:54 70.3 °F 60.4 °F 29.9 in Calm   2 mph 70.8% 0 in
01:59 70.3 °F 60.4 °F 29.9 in Calm   2.3 mph 70.7% 0 in
02:04 70.3 °F 60.4 °F 29.9 in Calm   2 mph 71% 0 in
02:09 70.3 °F 60.4 °F 29.9 in Calm   3.5 mph 71% 0 in
02:14 70.3 °F 60.4 °F 29.9 in Calm   3.6 mph 71% 0 in
02:19 70.3 °F 60.4 °F 29.9 in Calm   4 mph 71% 0 in
02:24 70.3 °F 60.4 °F 29.9 in Calm   3.5 mph 70.8% 0 in
02:29 70.3 °F 60.1 °F 29.9 in Sur 0.6 mph 3.6 mph 70% 0 in
02:34 70.3 °F 60.1 °F 29.9 in Sur 1.8 mph 4 mph 70.1% 0 in
02:39 70.3 °F 60.4 °F 29.9 in SSO 1.7 mph 4 mph 71% 0 in
02:44 70.2 °F 60.3 °F 29.9 in NO 1.4 mph 3 mph 71% 0 in
02:49 69.6 °F 59.9 °F 29.9 in OSO 1.4 mph 5.8 mph 70.8% 0 in
02:54 69.6 °F 59.5 °F 29.9 in SSE 1.4 mph 6 mph 70.2% 0 in
02:59 69.6 °F 59 °F 29.9 in SSO 2.1 mph 6 mph 69.2% 0 in
03:04 69.6 °F 58.6 °F 29.9 in SO 3.1 mph 6 mph 68.1% 0 in
03:09 69.6 °F 58.6 °F 29.9 in SSO 3.1 mph 6 mph 67.8% 0 in
03:14 69.8 °F 58.3 °F 29.9 in SSE 3.1 mph 6 mph 67% 0 in
03:19 69.8 °F 58.6 °F 29.9 in SSE 2.9 mph 6 mph 67.5% 0 in
03:24 69.8 °F 58.3 °F 29.9 in SSE 2.4 mph 3.6 mph 67% 0 in
03:29 69.8 °F 58.1 °F 29.9 in SSO 2.1 mph 4 mph 66.6% 0 in
03:34 69.8 °F 57.9 °F 29.9 in SO 1.4 mph 4 mph 66% 0 in
03:39 69.8 °F 57.9 °F 29.9 in SO 0.9 mph   66.1% 0 in
03:44 69.8 °F 57.9 °F 29.9 in Calm     66% 0 in
03:49 69.6 °F 57.7 °F 29.9 in Calm   4.7 mph 66% 0 in
03:54 69.6 °F 57.7 °F 29.9 in Calm   5 mph 66% 0 in
03:59 69.8 °F 57.9 °F 29.9 in OSO 1.1 mph 5 mph 66% 0 in
04:04 69.6 °F 58.3 °F 29.9 in NO 2.4 mph 4.6 mph 67.2% 0 in
04:09 69.3 °F 58.3 °F 29.9 in NO 2.2 mph 5 mph 68% 0 in
04:14 68.9 °F 57.7 °F 29.9 in Oeste 1.8 mph 5.4 mph 67.8% 0 in
04:19 69.1 °F 57.4 °F 29.9 in Sur 2.4 mph 6.9 mph 66.5% 0 in
04:24 69.4 °F 57.4 °F 29.9 in Sur 3.6 mph 7 mph 65.8% 0 in
04:29 69.6 °F 57.2 °F 29.9 in Sur 3.8 mph 7 mph 64.6% 0 in
04:34 70 °F 56.7 °F 29.9 in Sur 4.3 mph 7 mph 62.8% 0 in
04:39 70.3 °F 56.5 °F 29.9 in Sur 4.6 mph 8.1 mph 61.6% 0 in
04:44 70.5 °F 56.3 °F 29.9 in SSO 5.2 mph 8.1 mph 60.9% 0 in
04:49 70.5 °F 56.3 °F 29.9 in Sur 5 mph 7 mph 60.6% 0 in
04:54 70.5 °F 56.5 °F 29.9 in Sur 4.7 mph 7 mph 61% 0 in
04:59 70.3 °F 56.7 °F 29.9 in SO 4 mph 5 mph 61.9% 0 in
05:04 70.2 °F 56.5 °F 29.9 in SO 3.1 mph 5 mph 62% 0 in
05:09 70.2 °F 57 °F 29.9 in SO 2.7 mph 4 mph 63% 0 in
05:14 70 °F 57.2 °F 29.9 in SSO 2 mph 4.3 mph 64.1% 0 in
05:19 69.4 °F 57.2 °F 29.9 in SSE 2.1 mph 5.4 mph 65.3% 0 in
05:24 68.7 °F 57 °F 29.9 in Sur 2.4 mph 6 mph 66.4% 0 in
05:29 68.4 °F 57 °F 29.9 in SSE 2.8 mph 6 mph 67% 0 in
05:34 68.2 °F 56.8 °F 29.9 in SSE 3.6 mph 6 mph 67.4% 0 in
05:39 68 °F 56.8 °F 29.9 in SSE 3.6 mph 5 mph 67.4% 0 in
05:44 68.2 °F 56.8 °F 29.9 in SSE 3.6 mph 5 mph 67% 0 in
05:49 68.4 °F 56.8 °F 29.9 in SSE 3.4 mph 5.8 mph 66.8% 0 in
05:54 68.5 °F 56.7 °F 29.9 in SSE 2.9 mph 6 mph 66% 0 in
05:59 68.5 °F 56.5 °F 29.9 in Sur 3.2 mph 6.2 mph 65% 0 in
06:04 68.9 °F 56.3 °F 29.9 in Sur 3.6 mph 7.4 mph 64% 0 in
06:09 69.3 °F 56.5 °F 29.9 in Sur 4 mph 7 mph 64% 0 in
06:14 69.3 °F 56.7 °F 29.9 in SSO 4.7 mph 6 mph 64% 0 in
06:19 69.3 °F 56.7 °F 29.9 in SSO 4.3 mph 5.8 mph 64% 0 in
06:24 69.3 °F 56.7 °F 29.9 in SO 3.6 mph 6 mph 64% 0 in
06:29 69.3 °F 56.7 °F 29.9 in SO 3.4 mph 6.4 mph 64% 0 in
06:34 69.3 °F 56.5 °F 29.9 in SO 3.1 mph 7 mph 63.7% 0 in
06:39 69.3 °F 56.1 °F 29.9 in SO 3.3 mph 7 mph 63% 0 in
06:44 69.3 °F 56.1 °F 29.9 in SO 3.6 mph 5.8 mph 62.9% 0 in
06:49 69.3 °F 55.8 °F 29.9 in SO 3.6 mph 6.2 mph 62.1% 0 in
06:54 69.4 °F 55.9 °F 29.9 in SO 3.6 mph 6.2 mph 62% 0 in
06:59 69.3 °F 55.8 °F 29.9 in SO 3.6 mph 6 mph 62.2% 0 in
07:04 69.4 °F 55.9 °F 29.9 in OSO 3.6 mph 6 mph 62% 0 in
07:09 69.4 °F 55.6 °F 29.9 in SO 3.4 mph 5.9 mph 61.3% 0 in
07:14 69.4 °F 55.4 °F 29.9 in SO 2.9 mph 6.9 mph 61% 0 in
07:19 69.4 °F 55.4 °F 29.9 in SO 2.9 mph 7 mph 60.8% 0 in
07:24 69.4 °F 54.9 °F 29.9 in SO 2.9 mph 7.6 mph 60.1% 0 in
07:29 69.4 °F 54.9 °F 29.9 in OSO 3.2 mph 8.1 mph 60% 0 in
07:34 69.4 °F 54.9 °F 29.9 in OSO 4 mph 7 mph 60% 0 in
07:39 69.4 °F 54.9 °F 29.9 in SO 3.9 mph 6.4 mph 60% 0 in
07:44 69.4 °F 55 °F 29.9 in SO 3.6 mph 7 mph 60% 0 in
07:49 69.6 °F 54.7 °F 29.9 in SO 3.7 mph 6.2 mph 59% 0 in
07:54 70 °F 55 °F 29.9 in SO 4 mph 6 mph 59% 0 in
07:59 70.2 °F 55 °F 29.9 in SO 4.2 mph 6.9 mph 58.5% 0 in
08:04 70.5 °F 55 °F 29.9 in SO 4.3 mph 7 mph 57.9% 0 in
08:09 70.9 °F 55 °F 29.9 in OSO 4.3 mph 7 mph 57.1% 0 in
08:14 71.1 °F 55 °F 29.9 in OSO 4.3 mph 6 mph 57% 0 in
08:19 71.2 °F 55.2 °F 29.9 in SO 3.7 mph 5 mph 56.9% 0 in
08:24 71.4 °F 55 °F 29.9 in SSO 2.4 mph 5.4 mph 56.1% 0 in
08:29 71.6 °F 55.2 °F 29.9 in SSO 2.8 mph 6 mph 56.1% 0 in
08:34 71.8 °F 55.2 °F 29.9 in SO 3.6 mph 6 mph 56.1% 0 in
08:39 72 °F 55.4 °F 29.9 in SSO 3.6 mph 6.9 mph 56% 0 in
08:44 72 °F 55.4 °F 29.9 in SSO 3.6 mph 7 mph 56.1% 0 in
08:49 72.1 °F 55.8 °F 29.9 in SSO 4 mph 7.4 mph 56.3% 0 in
08:54 72.3 °F 55.8 °F 29.9 in SO 4.7 mph 7 mph 56% 0 in
08:59 72.7 °F 56.1 °F 29.9 in SO 4.4 mph 8.5 mph 56% 0 in
09:04 73 °F 56.1 °F 29.9 in SO 4 mph 9 mph 55.5% 0 in
09:09 73.2 °F 56.1 °F 29.9 in SO 4.1 mph 9.2 mph 55% 0 in
09:14 73.6 °F 56.3 °F 29.9 in SO 4.3 mph 9.2 mph 55% 0 in
09:19 73.8 °F 56.7 °F 29.9 in OSO 4.7 mph 10.4 mph 55% 0 in
09:24 73.9 °F 56.8 °F 29.9 in SO 5.4 mph 10 mph 55% 0 in
09:29 74.3 °F 57 °F 29.9 in SO 5 mph 12.3 mph 55% 0 in
09:34 74.5 °F 57.4 °F 29.9 in OSO 4.3 mph 13 mph 55% 0 in
09:39 74.7 °F 57.4 °F 29.9 in OSO 4.7 mph 11.2 mph 55% 0 in
09:44 74.8 °F 57.7 °F 29.9 in OSO 5.4 mph 14.5 mph 55% 0 in
09:49 75 °F 57.7 °F 29.9 in Oeste 6.1 mph 15.6 mph 55% 0 in
09:54 75.2 °F 57.9 °F 29.9 in ONO 7.6 mph 16.1 mph 55% 0 in
09:59 75.4 °F 58.1 °F 29.9 in ONO 7.8 mph 15 mph 55% 0 in
10:04 75.6 °F 57.9 °F 29.9 in Oeste 8.1 mph 12 mph 54.4% 0 in
10:09 75.7 °F 57.9 °F 29.9 in SO 7.5 mph 12 mph 54% 0 in
10:14 75.7 °F 57.9 °F 29.9 in Oeste 6.4 mph 10.4 mph 53.9% 0 in
10:19 75.7 °F 57.9 °F 29.9 in OSO 6.1 mph 10 mph 53.7% 0 in
10:24 76.3 °F 57.9 °F 29.9 in SSO 5.4 mph 8 mph 53.2% 0 in
10:29 76.6 °F 57.7 °F 29.9 in OSO 5.2 mph 10.7 mph 52.3% 0 in
10:34 76.6 °F 57.6 °F 29.9 in OSO 4.7 mph 11 mph 51.8% 0 in
10:39 76.6 °F 57.7 °F 29.9 in SO 5.2 mph 10 mph 52% 0 in
10:44 77 °F 57.9 °F 29.9 in ONO 5.9 mph 8.5 mph 51.7% 0 in
10:49 77.2 °F 57.9 °F 29.9 in OSO 5.3 mph 9 mph 51.7% 0 in
10:54 77.4 °F 57.6 °F 29.9 in Oeste 4.3 mph 9.2 mph 50.7% 0 in
10:59 77.5 °F 57.7 °F 29.9 in OSO 4.2 mph 10.7 mph 50.4% 0 in
11:04 77.7 °F 57.6 °F 29.9 in OSO 4 mph 11 mph 50% 0 in
11:09 78.3 °F 58.1 °F 29.9 in ONO 4.4 mph 11.5 mph 50.2% 0 in
11:14 78.3 °F 58.1 °F 29.9 in OSO 5.2 mph 12 mph 50% 0 in
11:19 78.3 °F 58.1 °F 29.9 in ONO 4.9 mph 9 mph 50% 0 in
11:24 78.4 °F 58.1 °F 29.9 in Oeste 4.3 mph 8.5 mph 49.5% 0 in
11:29 78.4 °F 57.6 °F 29.9 in Oeste 4.6 mph 10.4 mph 48.5% 0 in
11:34 78.4 °F 57.7 °F 29.9 in SO 5.2 mph 10 mph 49% 0 in
11:39 78.6 °F 57.9 °F 29.9 in SSO 4.7 mph 8 mph 49% 0 in
11:44 79.3 °F 58.3 °F 29.9 in NNE 3.6 mph 6.9 mph 48.7% 0 in
11:49 80.1 °F 58.3 °F 29.9 in NO 3.4 mph 8.1 mph 47.7% 0 in
11:54 80.2 °F 58.6 °F 29.9 in North 2.9 mph 8 mph 47.6% 0 in
11:59 80.8 °F 57.7 °F 29.9 in Oeste 3 mph 7.6 mph 45.4% 0 in
12:04 80.8 °F 56.8 °F 29.9 in NNO 3.1 mph 9.2 mph 44.1% 0 in
12:09 81 °F 57 °F 29.9 in SSE 3.3 mph 9.2 mph 44.1% 0 in
12:14 81.1 °F 57.2 °F 29.9 in ONO 3.6 mph 10 mph 43.9% 0 in
12:19 81.5 °F 56.5 °F 29.9 in Oeste 3.7 mph 10.4 mph 42.5% 0 in
12:24 81.1 °F 56.5 °F 29.9 in Oeste 4 mph 10 mph 42.8% 0 in
12:29 81 °F 56.5 °F 29.9 in NO 4.4 mph 8.1 mph 43% 0 in
12:34 81.1 °F 56.5 °F 29.9 in NNE 5.2 mph 7 mph 43% 0 in
12:39 81.9 °F 56.8 °F 29.9 in North 4.1 mph 6.9 mph 42.5% 0 in
12:44 82.2 °F 56.7 °F 29.9 in NNO 2 mph 8.5 mph 41.8% 0 in
12:49 82.2 °F 56.8 °F 29.9 in North 3.1 mph 11.5 mph 42% 0 in
12:54 82 °F 56.7 °F 29.9 in NO 5.2 mph 12 mph 42% 0 in
12:59 81.9 °F 56.7 °F 29.9 in North 5.7 mph 11 mph 42% 0 in
13:04 82 °F 56.8 °F 29.9 in NNE 6.2 mph 10 mph 42% 0 in
13:09 82.4 °F 56.8 °F 29.9 in Este 5.5 mph 8.1 mph 41.6% 0 in
13:14 82.8 °F 56.8 °F 29.9 in ESE 4 mph 8.1 mph 41.4% 0 in
13:19 83.1 °F 56.8 °F 29.9 in OSO 4.1 mph 10.4 mph 40.6% 0 in
13:24 83.5 °F 56.7 °F 29.9 in OSO 4.3 mph 10.4 mph 40% 0 in
13:29 83.8 °F 56.8 °F 29.9 in OSO 3.9 mph 8.5 mph 40% 0 in
13:34 84.6 °F 57 °F 29.9 in OSO 3.1 mph 9 mph 39.2% 0 in
13:39 84.7 °F 57 °F 29.9 in Oeste 3.4 mph 7 mph 39% 0 in
13:44 84.9 °F 57 °F 29.9 in NO 4 mph 7 mph 38.9% 0 in
13:49 84.9 °F 56.8 °F 29.9 in Oeste 3.9 mph 7 mph 38.5% 0 in
13:54 85.3 °F 56.8 °F 29.9 in Sur 3.6 mph 8.1 mph 38.1% 0 in
13:59 85.3 °F 56.8 °F 29.9 in ESE 3.8 mph 8.1 mph 38% 0 in
14:04 85.3 °F 56.8 °F 29.9 in SE 4 mph 8.5 mph 38% 0 in
14:09 85.5 °F 57 °F 29.9 in SE 4.1 mph 9 mph 38% 0 in
14:14 85.5 °F 57 °F 29.9 in SE 4.3 mph 8 mph 38% 0 in
14:19 85.6 °F 57.2 °F 29.9 in ONO 4.3 mph 9.2 mph 38% 0 in
14:24 85.8 °F 56.8 °F 29.9 in Oeste 4.3 mph 9.2 mph 37.6% 0 in
14:29 85.8 °F 56.5 °F 29.9 in SSO 4.8 mph 9.7 mph 37% 0 in
14:34 85.8 °F 56.7 °F 29.9 in SSE 5.9 mph 10 mph 37% 0 in
14:39 86.4 °F 57 °F 29.9 in ESE 5.5 mph 9 mph 37% 0 in
14:44 86.5 °F 57.2 °F 29.9 in ONO 4.7 mph 7 mph 36.8% 0 in
14:49 87.3 °F 57.2 °F 29.9 in NNE 4.2 mph 7.4 mph 36.2% 0 in
14:54 87.4 °F 56.8 °F 29.9 in ENE 2.9 mph 8.5 mph 35.5% 0 in
14:59 87.4 °F 56.7 °F 29.9 in SE 3.2 mph 9 mph 35.2% 0 in
15:04 87.6 °F 56.7 °F 29.9 in SE 3.6 mph 9.2 mph 35% 0 in
15:09 87.4 °F 56.7 °F 29.9 in SSE 3.9 mph 9 mph 35.3% 0 in
15:14 87.6 °F 56.7 °F 29.9 in SE 4.3 mph 8 mph 35% 0 in
15:19 87.6 °F 57 °F 29.9 in ESE 4.4 mph 17.3 mph 35.6% 0 in
15:24 87.6 °F 57.6 °F 29.9 in ESE 4.7 mph 17 mph 36.2% 0 in
15:29 88.2 °F 57.6 °F 29.9 in ESE 6.2 mph 16.3 mph 35.6% 0 in
15:34 87.8 °F 57.6 °F 29.9 in ESE 9.2 mph 16 mph 36% 0 in
15:39 88 °F 57.6 °F 29.8 in ESE 8.9 mph 17 mph 35.9% 0 in
15:44 87.8 °F 57.4 °F 29.8 in ESE 8.5 mph 17.3 mph 35.9% 0 in
15:49 87.8 °F 57 °F 29.8 in ESE 9.4 mph 17.5 mph 35.3% 0 in
15:54 87.8 °F 56.8 °F 29.8 in ESE 11.4 mph 17 mph 35.1% 0 in
15:59 87.8 °F 57.2 °F 29.8 in SE 10.7 mph 18.5 mph 35.5% 0 in
16:04 87.4 °F 56.8 °F 29.9 in SSE 9.7 mph 20.7 mph 35.6% 0 in
16:09 87.4 °F 57 °F 29.9 in SE 10.2 mph 21 mph 35.8% 0 in
16:14 88.2 °F 57 °F 29.9 in Sur 11.2 mph 16.3 mph 35.1% 0 in
16:19 88.2 °F 57 °F 29.9 in Sur 10.9 mph 16 mph 35% 0 in
16:24 88 °F 56.8 °F 29.8 in SSE 10.2 mph 19.2 mph 35% 0 in
16:29 87.8 °F 57.4 °F 29.8 in SE 9.7 mph 19 mph 35.7% 0 in
16:34 88.3 °F 57.2 °F 29.8 in SSE 8.7 mph 15 mph 35% 0 in
16:39 88.3 °F 57 °F 29.8 in Sur 8.9 mph 17.8 mph 34.8% 0 in
16:44 88 °F 56.7 °F 29.8 in SSE 9.2 mph 18.4 mph 34.7% 0 in
16:49 87.4 °F 56.5 °F 29.8 in SSE 10.1 mph 17.3 mph 35.3% 0 in
16:54 87.4 °F 56.5 °F 29.8 in SSE 11.8 mph 17 mph 35% 0 in
16:59 87.4 °F 56.5 °F 29.8 in SE 11.3 mph 17.5 mph 35% 0 in
17:04 87.6 °F 56.7 °F 29.8 in SE 10.7 mph 18.5 mph 35% 0 in
17:09 87.4 °F 57 °F 29.8 in SSE 10.5 mph 19 mph 35.7% 0 in
17:14 88 °F 56.8 °F 29.8 in SSE 10.2 mph 17.3 mph 35% 0 in
17:19 87.4 °F 56.5 °F 29.8 in SSE 10.2 mph 17 mph 35% 0 in
17:24 87.3 °F 56.8 °F 29.8 in SSE 10.2 mph 19 mph 35.7% 0 in
17:29 87.4 °F 57.2 °F 29.8 in SSE 10.6 mph 19 mph 36% 0 in
17:34 87.4 °F 57 °F 29.8 in Sur 11.4 mph 18.5 mph 35.7% 0 in
17:39 87.1 °F 56.8 °F 29.8 in SSE 11.8 mph 19 mph 36% 0 in
17:44 87.1 °F 56.8 °F 29.8 in SSE 12.5 mph 19.6 mph 36% 0 in
17:49 87.1 °F 56.8 °F 29.8 in SE 12.2 mph 20 mph 36% 0 in
17:54 87.3 °F 57 °F 29.8 in SSE 11.8 mph 19.7 mph 36% 0 in
17:59 87.4 °F 57 °F 29.8 in SSE 11 mph 20 mph 35.8% 0 in
18:04 87.3 °F 57 °F 29.8 in SSE 10 mph 18.1 mph 36% 0 in
18:09 86.9 °F 56.7 °F 29.8 in SSE 10.6 mph 20.4 mph 36% 0 in
18:14 86.4 °F 56.5 °F 29.8 in SSE 11.8 mph 21 mph 36.1% 0 in
18:19 86.4 °F 56.3 °F 29.8 in SSE 12.1 mph 21 mph 36% 0 in
18:24 86.4 °F 56.3 °F 29.8 in SSE 12.5 mph 18.5 mph 36.1% 0 in
18:29 86.4 °F 56.8 °F 29.8 in SSE 12.3 mph 19 mph 36.9% 0 in
18:34 86.4 °F 56.8 °F 29.8 in SSE 11.8 mph 16.1 mph 36.6% 0 in
18:39 86.4 °F 56.7 °F 29.8 in SSE 11.6 mph 19 mph 36.6% 0 in
18:44 86.2 °F 56.7 °F 29.8 in SSE 11.2 mph 19 mph 36.8% 0 in
18:49 86.2 °F 56.8 °F 29.8 in SSE 11.1 mph 18.4 mph 36.9% 0 in
18:54 86.2 °F 56.8 °F 29.8 in SSE 10.7 mph 18 mph 37% 0 in
18:59 86.4 °F 57 °F 29.8 in SSE 10.1 mph 14 mph 37% 0 in
19:04 86.5 °F 56.8 °F 29.8 in SE 9.2 mph 17.3 mph 36.5% 0 in
19:09 86 °F 56.7 °F 29.8 in SE 9 mph 17.3 mph 37% 0 in
19:14 85.6 °F 56.5 °F 29.8 in SE 8.7 mph 15 mph 37.1% 0 in
19:19 85.3 °F 56.8 °F 29.8 in SE 8.6 mph 15 mph 38% 0 in
19:24 84.9 °F 56.5 °F 29.8 in SE 8.5 mph 15 mph 38% 0 in
19:29 84.7 °F 56.5 °F 29.8 in SE 8.5 mph 15 mph 38.3% 0 in
19:34 84.6 °F 56.8 °F 29.8 in SE 8.5 mph 13 mph 38.9% 0 in
19:39 84.2 °F 56.7 °F 29.8 in SE 7.8 mph 12 mph 39% 0 in
19:44 84 °F 56.5 °F 29.8 in SE 6.4 mph 11 mph 39% 0 in
19:49 84 °F 56.5 °F 29.8 in SE 6.4 mph 12.5 mph 39% 0 in
19:54 83.8 °F 56.3 °F 29.8 in SSE 6.4 mph 13 mph 39% 0 in
19:59 83.8 °F 56.1 °F 29.8 in SE 6.4 mph 13 mph 39% 0 in
20:04 83.5 °F 56.5 °F 29.8 in SE 6.4 mph 9.2 mph 39.8% 0 in
20:09 83.1 °F 56.3 °F 29.8 in SE 6.3 mph 9.2 mph 40% 0 in
20:14 83.1 °F 56.3 °F 29.8 in SE 5.9 mph 9 mph 40% 0 in
20:19 83.3 °F 56.5 °F 29.8 in ESE 5.7 mph 9 mph 40% 0 in
20:24 83.1 °F 56.3 °F 29.8 in ESE 5.2 mph 8 mph 40% 0 in
20:29 82.9 °F 56.1 °F 29.8 in ESE 4.8 mph 8.5 mph 40% 0 in
20:34 82.8 °F 56.1 °F 29.9 in SE 4 mph 9.2 mph 40.1% 0 in
20:39 82.4 °F 56.3 °F 29.9 in ESE 4.4 mph 9 mph 41% 0 in
20:44 82 °F 56.3 °F 29.9 in ESE 5.2 mph 8.1 mph 41.4% 0 in
20:49 81.7 °F 56.3 °F 29.9 in ESE 5.3 mph 9.7 mph 42% 0 in
20:54 81.3 °F 56.5 °F 29.9 in ESE 5.4 mph 10 mph 42.7% 0 in
20:59 81 °F 56.5 °F 29.9 in ESE 5.6 mph 9 mph 43% 0 in
21:04 80.8 °F 56.7 °F 29.9 in Este 5.9 mph 8 mph 43.7% 0 in
21:09 80.4 °F 56.5 °F 29.9 in ESE 5.1 mph 6 mph 44% 0 in
21:14 80.2 °F 56.3 °F 29.9 in ESE 3.6 mph 8.1 mph 44% 0 in
21:19 80.1 °F 56.5 °F 29.9 in Este 4 mph 8.1 mph 44.5% 0 in
21:24 79.7 °F 56.5 °F 29.9 in Este 4.7 mph 8 mph 45% 0 in
21:29 79.3 °F 56.3 °F 29.9 in Este 4.5 mph 7.4 mph 45% 0 in
21:34 79.3 °F 56.3 °F 29.9 in ESE 4 mph 7 mph 45.2% 0 in
21:39 79.2 °F 56.5 °F 29.9 in ESE 4 mph 7 mph 46% 0 in
21:44 79 °F 56.3 °F 29.9 in ESE 4 mph 7.6 mph 46% 0 in
21:49 78.6 °F 56.1 °F 29.9 in ESE 4 mph 8.7 mph 46% 0 in
21:54 78.4 °F 56.5 °F 29.9 in ESE 4 mph 9.2 mph 46.8% 0 in
21:59 78.4 °F 56.5 °F 29.9 in SE 4.3 mph 7 mph 47% 0 in
22:04 78.3 °F 56.3 °F 29.9 in SE 4.7 mph 7 mph 47% 0 in
22:09 78.1 °F 56.3 °F 29.9 in ESE 4.3 mph 7 mph 47.3% 0 in
22:14 77.9 °F 56.5 °F 29.9 in SE 3.6 mph 6.2 mph 47.7% 0 in
22:19 77.7 °F 56.5 °F 29.9 in SE 3.8 mph 7.4 mph 48% 0 in
22:24 77.7 °F 56.5 °F 29.9 in ESE 4.3 mph 7 mph 48% 0 in
22:29 77.5 °F 56.3 °F 29.9 in ESE 4.3 mph 7 mph 48% 0 in
22:34 77.5 °F 56.7 °F 29.9 in ESE 4.3 mph 6 mph 48.5% 0 in
22:39 77.5 °F 56.8 °F 29.9 in ESE 3.5 mph 5 mph 48.8% 0 in
22:44 77.5 °F 56.8 °F 29.9 in ESE 2 mph 3 mph 49% 0 in
22:49 77.4 °F 56.7 °F 29.9 in SE 1.8 mph 4.7 mph 49% 0 in
22:54 77.2 °F 56.7 °F 29.9 in ONO 1.4 mph 5 mph 49.3% 0 in
22:59 77 °F 56.8 °F 29.9 in ONO 1.4 mph 4 mph 50% 0 in
23:04 76.8 °F 56.8 °F 29.9 in NO 1.4 mph 3 mph 50% 0 in
23:09 76.6 °F 56.7 °F 29.9 in NO 0.9 mph   50% 0 in
23:14 76.6 °F 56.7 °F 29.9 in Calm     50% 0 in
23:19 76.6 °F 56.7 °F 29.9 in Calm   3.6 mph 50.2% 0 in
23:24 76.5 °F 57 °F 29.9 in Calm   4 mph 51% 0 in
23:29 76.5 °F 56.8 °F 29.9 in Calm   3 mph 51% 0 in
23:34 76.3 °F 56.8 °F 29.9 in Calm     51% 0 in
23:39 76.3 °F 56.8 °F 29.9 in Calm   2.3 mph 51% 0 in
23:44 76.1 °F 57.2 °F 29.9 in Calm   3.5 mph 51.8% 0 in
23:49 76.3 °F 57.4 °F 29.9 in Sur 0.7 mph 5.2 mph 52% 0 in
23:54 76.3 °F 57.4 °F 29.9 in SSO 2 mph 5.2 mph 51.9% 0 in
23:59 76.3 °F 56.8 °F 29.9 in SO 2.5 mph 7.4 mph 50.9% 0 in
Murcia-Puente Tocinos, España
Compliments of Weather Underground - 3 mb

La estación de MeteoMurcia.com, publica sus datos en los siguientes proyectos:

Weather Underground PWS IMURCIAP2 Meteoclimatic www.awekas.at

W3Counter
Web Analytics